Time;durP1;ratioP1;P1;durP2;ratioP2;P2;SDS_P1;SDS_P2;PMS_P1;PMS_P2;Temp;Humidity;BMP_temperature;BMP_pressure;BME280_temperature;BME280_humidity;BME280_pressure;Samples;Min_cycle;Max_cycle;Signal;HPM_P1;HPM_P2
2023/08/08 00:00:28;;;;;;;;;;;;;;;22.74;56.10;100275.50;2284687;76;50426;-76
2023/08/08 00:03:30;;;;;;;;;;;;;;;22.76;56.03;100281.52;2320827;76;50800;-77
2023/08/08 00:06:32;;;;;;;;;;;;;;;22.76;56.10;100282.01;2269603;75;51034;-77
2023/08/08 00:09:33;;;;;;;;;;;;;;;22.74;56.19;100271.98;2295594;76;50623;-78
2023/08/08 00:12:35;;;;;;;;;;;;;;;22.75;56.09;100269.05;2319784;76;51522;-78
2023/08/08 00:15:36;;;;;;;;;;;;;;;22.73;56.22;100273.83;2295189;76;51560;-76
2023/08/08 00:18:38;;;;;;;;;;;;;;;22.75;56.23;100277.67;2307484;76;51653;-76
2023/08/08 00:21:40;;;;;;;;;;;;;;;22.74;56.28;100271.45;2319581;76;51399;-76
2023/08/08 00:24:41;;;;;;;;;;;;;;;22.73;56.20;100265.74;2295261;76;50425;-76
2023/08/08 00:27:43;;;;;;;;;;;;;;;22.74;56.11;100266.06;2319389;75;51498;-77
2023/08/08 00:30:45;;;;;;;;;;;;;;;22.73;56.03;100272.48;2270429;76;50957;-77
2023/08/08 00:33:47;;;;;;;;;;;;;;;22.73;56.06;100273.02;2287887;76;51702;-77
2023/08/08 00:36:48;;;;;;;;;;;;;;;22.72;56.03;100285.68;2309084;75;51469;-76
2023/08/08 00:39:50;;;;;;;;;;;;;;;22.73;55.99;100291.36;2309335;76;51442;-76
2023/08/08 00:42:51;;;;;;;;;;;;;;;22.72;56.02;100288.91;2269255;78;49623;-77
2023/08/08 00:45:53;;;;;;;;;;;;;;;22.73;55.88;100287.84;2269451;78;50366;-76
2023/08/08 00:48:54;;;;;;;;;;;;;;;22.72;55.91;100291.08;2282531;76;50715;-77
2023/08/08 00:51:57;;;;;;;;;;;;;;;22.72;55.83;100294.30;2282736;78;50441;-76
2023/08/08 00:54:59;;;;;;;;;;;;;;;22.71;55.89;100293.48;2253846;78;52558;-76
2023/08/08 00:58:00;;;;;;;;;;;;;;;22.71;55.82;100293.98;2282523;76;51586;-76
2023/08/08 01:01:03;;;;;;;;;;;;;;;22.69;55.76;100295.56;2285829;76;51504;-76
2023/08/08 01:04:06;;;;;;;;;;;;;;;22.69;55.69;100295.56;2302565;76;50690;-77
2023/08/08 01:07:22;;;;;;;;;;;;;;;22.69;55.82;100288.82;2321477;75;22697;-76
2023/08/08 01:10:28;;;;;;;;;;;;;;;22.69;55.85;100289.34;2321372;76;51539;-75
2023/08/08 01:13:30;;;;;;;;;;;;;;;22.70;55.64;100293.69;2321398;75;51577;-76
2023/08/08 01:16:32;;;;;;;;;;;;;;;22.69;55.81;100292.87;2321127;75;51588;-76
2023/08/08 01:19:34;;;;;;;;;;;;;;;22.68;55.74;100299.28;2309110;76;51026;-76
2023/08/08 01:22:37;;;;;;;;;;;;;;;22.68;55.58;100289.03;2321244;76;50729;-76
2023/08/08 01:25:40;;;;;;;;;;;;;;;22.68;55.59;100297.12;2301339;75;50439;-76
2023/08/08 01:28:43;;;;;;;;;;;;;;;22.66;55.59;100287.92;2320927;75;50729;-76
2023/08/08 01:31:44;;;;;;;;;;;;;;;22.65;55.53;100294.34;2310313;76;50663;-76
2023/08/08 01:34:46;;;;;;;;;;;;;;;22.66;55.55;100300.55;2304621;76;51550;-76
2023/08/08 01:37:52;;;;;;;;;;;;;;;22.66;55.45;100286.56;2321102;75;51510;-76
2023/08/08 01:40:53;;;;;;;;;;;;;;;22.65;55.40;100292.98;2321276;75;55728;-76
2023/08/08 01:43:55;;;;;;;;;;;;;;;22.64;55.33;100288.65;2309071;76;51167;-76
2023/08/08 01:46:57;;;;;;;;;;;;;;;22.64;55.30;100283.25;2321018;75;50302;-76
2023/08/08 01:49:58;;;;;;;;;;;;;;;22.63;55.24;100280.23;2308920;76;49733;-75
2023/08/08 01:53:00;;;;;;;;;;;;;;;22.64;55.21;100279.21;2309101;76;50668;-75
2023/08/08 01:56:02;;;;;;;;;;;;;;;22.64;55.24;100281.09;2309059;76;50965;-76
2023/08/08 01:59:04;;;;;;;;;;;;;;;22.63;55.12;100276.19;2321077;76;50374;-77
2023/08/08 02:02:06;;;;;;;;;;;;;;;22.64;55.24;100270.30;2321381;76;50376;-77
2023/08/08 02:05:08;;;;;;;;;;;;;;;22.63;55.28;100268.10;2321277;76;51526;-76
2023/08/08 02:08:09;;;;;;;;;;;;;;;22.61;55.29;100268.34;2308812;76;50382;-76
2023/08/08 02:11:11;;;;;;;;;;;;;;;22.62;55.27;100267.81;2309217;76;50122;-76
2023/08/08 02:14:12;;;;;;;;;;;;;;;22.63;55.21;100261.36;2309147;76;50635;-75
2023/08/08 02:17:14;;;;;;;;;;;;;;;22.61;55.20;100260.25;2321042;75;52053;-76
2023/08/08 02:20:15;;;;;;;;;;;;;;;22.60;55.27;100255.88;2283085;76;52474;-77
2023/08/08 02:23:18;;;;;;;;;;;;;;;22.61;55.31;100256.20;2309326;76;51440;-76
2023/08/08 02:26:20;;;;;;;;;;;;;;;22.60;55.35;100250.48;2321137;75;50484;-75
2023/08/08 02:29:21;;;;;;;;;;;;;;;22.59;55.32;100254.77;2321405;76;50311;-76
2023/08/08 02:32:23;;;;;;;;;;;;;;;22.60;55.25;100259.11;2289337;76;51183;-76
2023/08/08 02:35:25;;;;;;;;;;;;;;;22.60;55.23;100265.85;2322163;76;51463;-76
2023/08/08 02:38:27;;;;;;;;;;;;;;;22.59;55.30;100253.42;2299644;76;50222;-76
2023/08/08 02:41:28;;;;;;;;;;;;;;;22.61;55.19;100254.03;2322104;76;50327;-76
2023/08/08 02:44:30;;;;;;;;;;;;;;;22.58;55.17;100246.36;2300264;76;51188;-76
2023/08/08 02:47:31;;;;;;;;;;;;;;;22.58;55.05;100253.10;2321782;75;50636;-76
2023/08/08 02:50:33;;;;;;;;;;;;;;;22.58;54.95;100250.41;2322151;76;51423;-75
2023/08/08 02:53:35;;;;;;;;;;;;;;;22.58;54.83;100247.21;2300188;76;50655;-75
2023/08/08 02:56:36;;;;;;;;;;;;;;;22.58;54.72;100242.31;2299857;75;52651;-76
2023/08/08 02:59:38;;;;;;;;;;;;;;;22.57;54.65;100251.47;2322096;76;51423;-76
2023/08/08 03:02:39;;;;;;;;;;;;;;;22.57;54.59;100252.28;2319255;76;50728;-76
2023/08/08 03:05:41;;;;;;;;;;;;;;;22.58;54.56;100258.49;2258630;78;51514;-77
2023/08/08 03:08:42;;;;;;;;;;;;;;;22.57;54.48;100252.81;2258099;77;51278;-76
2023/08/08 03:11:44;;;;;;;;;;;;;;;22.57;54.47;100246.07;2277756;77;51516;-76
2023/08/08 03:14:46;;;;;;;;;;;;;;;22.57;54.46;100255.51;2277742;77;51416;-75
2023/08/08 03:17:47;;;;;;;;;;;;;;;22.55;54.42;100246.28;2257688;78;50378;-75
2023/08/08 03:20:49;;;;;;;;;;;;;;;22.56;54.35;100251.99;2258617;77;52323;-75
2023/08/08 03:23:50;;;;;;;;;;;;;;;22.55;54.26;100242.76;2277837;78;51447;-76
2023/08/08 03:26:52;;;;;;;;;;;;;;;22.55;54.29;100238.72;2277696;77;51490;-76
2023/08/08 03:29:54;;;;;;;;;;;;;;;22.54;54.20;100246.52;2260010;78;51501;-74
2023/08/08 03:32:55;;;;;;;;;;;;;;;22.53;54.18;100257.83;2304486;76;49949;-76
2023/08/08 03:35:57;;;;;;;;;;;;;;;22.53;54.26;100254.28;2287506;77;51156;-76
2023/08/08 03:38:58;;;;;;;;;;;;;;;22.52;54.13;100254.81;2317020;75;50636;-76
2023/08/08 03:42:00;;;;;;;;;;;;;;;22.54;54.04;100245.16;2316632;77;50655;-76
2023/08/08 03:45:02;;;;;;;;;;;;;;;22.54;54.06;100254.60;2316969;77;50695;-76
2023/08/08 03:48:03;;;;;;;;;;;;;;;22.52;53.95;100244.02;2292083;77;51135;-76
2023/08/08 03:51:06;;;;;;;;;;;;;;;22.53;53.94;100255.13;2298982;76;51689;-77
2023/08/08 03:54:08;;;;;;;;;;;;;;;22.53;53.86;100258.33;2286932;78;50705;-76
2023/08/08 03:57:11;;;;;;;;;;;;;;;22.52;53.87;100264.77;2287892;76;50794;-76
2023/08/08 04:00:16;;;;;;;;;;;;;;;22.52;53.91;100255.34;2275622;78;52761;-76
2023/08/08 04:03:20;;;;;;;;;;;;;;;22.52;53.92;100262.08;2287736;76;51331;-76
2023/08/08 04:06:21;;;;;;;;;;;;;;;22.51;53.91;100262.61;2298855;76;50917;-75
2023/08/08 04:09:23;;;;;;;;;;;;;;;22.51;53.85;100253.17;2281026;77;50042;-76
2023/08/08 04:12:24;;;;;;;;;;;;;;;22.51;53.95;100257.74;2236779;78;51722;-76
2023/08/08 04:15:26;;;;;;;;;;;;;;;22.52;53.95;100248.59;2283077;76;50511;-76
2023/08/08 04:18:28;;;;;;;;;;;;;;;22.51;53.87;100249.12;2315610;75;50616;-75
2023/08/08 04:21:32;;;;;;;;;;;;;;;22.51;53.79;100251.82;2271445;78;50691;-76
2023/08/08 04:24:32;;;;;;;;;;;;;;;22.49;53.76;100248.52;2271447;78;22388;-77
2023/08/08 04:27:34;;;;;;;;;;;;;;;22.50;53.81;100254.20;2283732;76;50620;-77
2023/08/08 04:30:36;;;;;;;;;;;;;;;22.52;53.84;100263.42;2284076;77;50686;-77
2023/08/08 04:33:37;;;;;;;;;;;;;;;22.50;53.84;100257.42;2283660;78;51475;-76
2023/08/08 04:36:39;;;;;;;;;;;;;;;22.52;53.85;100248.59;2304249;75;50862;-76
2023/08/08 04:39:41;;;;;;;;;;;;;;;22.51;53.86;100238.87;2322989;75;51413;-77
2023/08/08 04:42:43;;;;;;;;;;;;;;;22.51;53.84;100246.95;2301879;76;51306;-76
2023/08/08 04:45:44;;;;;;;;;;;;;;;22.51;53.87;100241.56;2324354;75;50215;-76
2023/08/08 04:48:46;;;;;;;;;;;;;;;22.50;54.01;100253.38;2323686;75;50676;-76
2023/08/08 04:51:47;;;;;;;;;;;;;;;22.51;54.04;100251.82;2323888;76;50624;-75
2023/08/08 04:54:49;;;;;;;;;;;;;;;22.51;54.01;100245.08;2323719;75;50690;-76
2023/08/08 04:57:50;;;;;;;;;;;;;;;22.53;53.97;100263.72;2300070;76;50770;-76
2023/08/08 05:00:52;;;;;;;;;;;;;;;22.51;54.13;100258.56;2300030;76;52344;-75
2023/08/08 05:03:54;;;;;;;;;;;;;;;22.52;53.97;100252.64;2300223;76;51436;-76
2023/08/08 05:06:55;;;;;;;;;;;;;;;22.53;53.98;100251.09;2321353;75;50656;-77
2023/08/08 05:09:57;;;;;;;;;;;;;;;22.53;53.96;100242.14;2321775;76;51475;-76
2023/08/08 05:12:58;;;;;;;;;;;;;;;22.57;54.01;100251.47;2309783;76;52612;-76
